createdAt,value
2018-02-09T00:01:15.890Z,47.60
2018-02-09T00:03:43.454Z,47.60
2018-02-09T00:06:11.010Z,47.60
2018-02-09T00:08:39.307Z,47.60
2018-02-09T00:11:06.862Z,47.50
2018-02-09T00:13:34.394Z,47.40
2018-02-09T00:16:01.926Z,47.50
2018-02-09T00:18:29.518Z,47.40
2018-02-09T00:20:57.081Z,47.40
2018-02-09T00:23:25.375Z,47.40
2018-02-09T00:25:52.922Z,47.40
2018-02-09T00:28:21.228Z,47.40
2018-02-09T00:30:48.799Z,47.40
2018-02-09T00:33:16.342Z,47.50
2018-02-09T00:35:43.878Z,47.40
2018-02-09T00:38:12.186Z,47.30
2018-02-09T00:40:39.739Z,47.30
2018-02-09T00:43:07.327Z,47.20
2018-02-09T00:45:34.862Z,47.20
2018-02-09T00:48:02.403Z,47.20
2018-02-09T00:50:30.714Z,47.10
2018-02-09T00:52:58.254Z,47.10
2018-02-09T00:55:25.823Z,47.10
2018-02-09T00:57:53.370Z,47.20
2018-02-09T01:00:20.949Z,47.20
2018-02-09T01:02:48.494Z,47.30
2018-02-09T01:05:16.035Z,47.20
2018-02-09T01:07:44.363Z,47.30
2018-02-09T01:10:11.911Z,47.30
2018-02-09T01:12:39.460Z,47.20
2018-02-09T01:15:07.007Z,47.20
2018-02-09T01:17:34.821Z,47.20
2018-02-09T01:20:02.397Z,47.20
2018-02-09T01:22:29.953Z,47.20
2018-02-09T01:24:57.527Z,47.10
2018-02-09T01:27:25.072Z,47.20
2018-02-09T01:29:52.612Z,47.10
2018-02-09T01:32:20.203Z,47.20
2018-02-09T01:34:47.743Z,47.20
2018-02-09T01:37:15.294Z,46.70
2018-02-09T01:39:42.840Z,47.10
2018-02-09T01:42:10.395Z,47.10
2018-02-09T01:44:37.974Z,47.00
2018-02-09T01:47:05.502Z,47.10
2018-02-09T01:49:33.042Z,47.10
2018-02-09T01:52:01.352Z,47.10
2018-02-09T01:54:28.899Z,47.00
2018-02-09T01:56:56.466Z,47.10
2018-02-09T01:59:24.003Z,47.00
2018-02-09T02:01:52.313Z,47.00
2018-02-09T02:04:19.856Z,46.90
2018-02-09T02:06:47.401Z,46.90
2018-02-09T02:09:15.967Z,46.90
2018-02-09T02:11:43.502Z,46.90
2018-02-09T02:14:11.046Z,47.00
2018-02-09T02:16:38.591Z,47.00
2018-02-09T02:19:06.127Z,47.00
2018-02-09T02:21:33.691Z,47.00
2018-02-09T02:24:01.222Z,46.90
2018-02-09T02:26:28.766Z,47.00
2018-02-09T02:28:56.308Z,47.00
2018-02-09T02:31:23.864Z,47.40
2018-02-09T02:33:51.398Z,46.90
2018-02-09T02:36:18.955Z,46.80
2018-02-09T02:38:46.532Z,46.90
2018-02-09T02:41:14.089Z,46.90
2018-02-09T02:43:41.632Z,46.90
2018-02-09T02:46:09.176Z,46.80
2018-02-09T02:48:37.490Z,46.90
2018-02-09T02:51:05.041Z,46.90
2018-02-09T02:53:32.586Z,46.90
2018-02-09T02:56:00.127Z,46.80
2018-02-09T02:58:28.460Z,46.80
2018-02-09T03:00:56.002Z,46.80
2018-02-09T03:03:23.549Z,46.80
2018-02-09T03:05:51.094Z,46.90
2018-02-09T03:08:19.395Z,46.80
2018-02-09T03:10:46.942Z,46.80
2018-02-09T03:13:14.489Z,46.80
2018-02-09T03:15:42.802Z,46.90
2018-02-09T03:18:10.368Z,46.90
2018-02-09T03:20:37.898Z,46.90
2018-02-09T03:23:05.442Z,46.90
2018-02-09T03:25:33.772Z,46.90
2018-02-09T03:28:01.315Z,46.80
2018-02-09T03:30:28.894Z,46.80
2018-02-09T03:32:56.439Z,46.80
2018-02-09T03:35:24.006Z,46.80
2018-02-09T03:37:52.332Z,46.80
2018-02-09T03:40:20.647Z,46.80
2018-02-09T03:42:48.204Z,46.80
2018-02-09T03:45:15.754Z,46.80
2018-02-09T03:47:43.300Z,46.90
2018-02-09T03:50:11.627Z,46.90
2018-02-09T03:52:39.169Z,46.90
2018-02-09T03:55:06.714Z,46.80
2018-02-09T03:57:34.265Z,46.90
2018-02-09T04:00:02.583Z,46.80
2018-02-09T04:02:30.151Z,46.80
2018-02-09T04:04:57.703Z,46.80
2018-02-09T04:07:25.251Z,46.70
2018-02-09T04:09:53.556Z,46.80
2018-02-09T04:12:21.099Z,46.70
2018-02-09T04:14:48.672Z,46.70
2018-02-09T04:17:16.215Z,46.80
2018-02-09T04:19:43.764Z,46.80
2018-02-09T04:22:11.302Z,46.70
2018-02-09T04:24:39.611Z,46.80
2018-02-09T04:27:07.163Z,46.80
2018-02-09T04:29:34.704Z,46.70
2018-02-09T04:32:02.251Z,46.70
2018-02-09T04:34:30.559Z,46.70
2018-02-09T04:36:58.126Z,46.60
2018-02-09T04:39:25.678Z,46.70
2018-02-09T04:41:53.233Z,46.60
2018-02-09T04:44:20.770Z,46.60
2018-02-09T04:46:48.322Z,46.60
2018-02-09T04:49:16.618Z,46.50
2018-02-09T04:51:44.183Z,46.60
2018-02-09T04:54:11.730Z,46.50
2018-02-09T04:56:39.279Z,46.50
2018-02-09T04:59:07.614Z,46.50
2018-02-09T05:01:35.158Z,46.50
2018-02-09T05:04:02.701Z,46.50
2018-02-09T05:06:30.277Z,46.40
2018-02-09T05:08:57.827Z,46.40
2018-02-09T05:11:25.357Z,46.40
2018-02-09T05:13:52.924Z,46.30
2018-02-09T05:16:21.229Z,46.30
2018-02-09T05:18:48.762Z,46.30
2018-02-09T05:21:16.346Z,46.40
2018-02-09T05:23:43.885Z,46.30
2018-02-09T05:26:11.462Z,46.40
2018-02-09T05:28:39.054Z,46.40
2018-02-09T05:31:06.615Z,46.30
2018-02-09T05:33:34.158Z,46.10
2018-02-09T05:36:01.752Z,46.10
2018-02-09T05:38:29.288Z,46.10
2018-02-09T05:40:56.831Z,46.20
2018-02-09T05:43:24.399Z,46.30
2018-02-09T05:45:51.938Z,46.30
2018-02-09T05:48:19.478Z,46.30
2018-02-09T05:50:47.807Z,46.10
2018-02-09T05:53:15.369Z,46.10
2018-02-09T05:55:42.931Z,46.10
2018-02-09T05:58:10.472Z,46.20
2018-02-09T06:00:38.023Z,46.80
2018-02-09T06:03:05.591Z,46.50
2018-02-09T06:05:33.130Z,46.70
2018-02-09T06:08:00.668Z,46.80
2018-02-09T06:10:29.006Z,47.50
2018-02-09T06:12:57.783Z,47.40
2018-02-09T06:15:25.324Z,47.70
2018-02-09T06:17:52.911Z,48.40
2018-02-09T06:20:20.458Z,48.80
2018-02-09T06:22:47.994Z,49.20
2018-02-09T06:25:15.576Z,49.50
2018-02-09T06:27:43.123Z,49.70
2018-02-09T06:30:10.673Z,49.80
2018-02-09T06:32:38.243Z,49.90
2018-02-09T06:35:05.815Z,49.90
2018-02-09T06:37:33.362Z,49.90
2018-02-09T06:40:00.988Z,49.90
2018-02-09T06:42:28.548Z,50.00
2018-02-09T06:45:16.607Z,50.40
2018-02-09T06:47:46.379Z,50.60
2018-02-09T06:50:15.384Z,50.60
2018-02-09T06:52:42.923Z,50.70
2018-02-09T06:55:10.471Z,51.00
2018-02-09T06:57:55.772Z,51.40
2018-02-09T07:00:23.346Z,51.60
2018-02-09T07:02:50.919Z,52.00
2018-02-09T07:05:19.222Z,52.50
2018-02-09T07:07:47.531Z,52.50
2018-02-09T07:10:15.098Z,52.80
2018-02-09T07:12:42.635Z,53.10
2018-02-09T07:15:11.955Z,53.30
2018-02-09T07:17:39.536Z,53.50
2018-02-09T07:20:07.089Z,53.60
2018-02-09T07:22:34.636Z,53.70
2018-02-09T07:25:02.186Z,53.60
2018-02-09T07:27:29.726Z,53.60
2018-02-09T07:29:57.287Z,53.60
2018-02-09T07:32:24.824Z,53.60
2018-02-09T07:34:53.134Z,53.50
2018-02-09T07:37:43.998Z,53.40
2018-02-09T07:40:12.339Z,53.50
2018-02-09T07:42:40.100Z,53.50
2018-02-09T07:45:07.654Z,53.40
2018-02-09T07:47:35.470Z,53.30
2018-02-09T07:50:03.787Z,53.20
2018-02-09T07:52:33.488Z,53.20
2018-02-09T07:55:01.065Z,53.10
2018-02-09T07:57:28.626Z,53.20
2018-02-09T08:00:10.577Z,53.10
2018-02-09T08:02:38.122Z,53.00
2018-02-09T08:05:05.668Z,53.00
2018-02-09T08:07:33.219Z,52.80
2018-02-09T08:10:00.758Z,52.80
2018-02-09T08:12:28.329Z,52.80
2018-02-09T08:14:55.886Z,52.60
2018-02-09T08:17:23.447Z,52.60
2018-02-09T08:19:50.995Z,52.50
2018-02-09T08:22:18.535Z,52.40
2018-02-09T08:24:46.126Z,52.30
2018-02-09T08:27:13.672Z,52.20
2018-02-09T08:29:41.221Z,52.00
2018-02-09T08:32:08.780Z,51.90
2018-02-09T08:34:36.325Z,51.80
2018-02-09T08:37:04.664Z,51.70
2018-02-09T08:39:32.207Z,51.60
2018-02-09T08:41:59.755Z,51.50
2018-02-09T08:44:27.320Z,51.40
2018-02-09T08:46:54.868Z,51.30
2018-02-09T08:49:22.456Z,51.30
2018-02-09T08:51:50.012Z,51.10
2018-02-09T08:54:17.551Z,51.10
2018-02-09T08:56:45.096Z,51.10
2018-02-09T08:59:12.641Z,51.00
2018-02-09T09:01:40.216Z,50.90
2018-02-09T09:04:07.758Z,50.80
2018-02-09T09:06:36.072Z,51.20
2018-02-09T09:09:03.624Z,50.60
2018-02-09T09:11:31.170Z,50.50
2018-02-09T09:13:58.742Z,50.40
2018-02-09T09:16:26.288Z,50.40
2018-02-09T09:18:53.822Z,50.30
2018-02-09T09:21:22.146Z,50.20
2018-02-09T09:23:49.691Z,50.10
2018-02-09T09:26:17.271Z,50.20
2018-02-09T09:28:44.819Z,50.00
2018-02-09T09:31:12.373Z,50.00
2018-02-09T09:33:39.916Z,50.00
2018-02-09T09:36:08.226Z,49.80
2018-02-09T09:38:35.803Z,49.80
2018-02-09T09:41:03.362Z,49.90
2018-02-09T09:43:40.830Z,49.90
2018-02-09T09:46:08.371Z,49.90
2018-02-09T09:48:36.680Z,49.80
2018-02-09T09:51:04.224Z,49.80
2018-02-09T09:53:31.765Z,49.70
2018-02-09T09:56:00.099Z,49.60
2018-02-09T09:58:27.653Z,49.60
2018-02-09T10:00:55.195Z,49.50
2018-02-09T10:03:22.742Z,49.40
2018-02-09T10:05:50.302Z,49.50
2018-02-09T10:08:17.873Z,49.50
2018-02-09T10:10:45.405Z,49.50
2018-02-09T10:13:13.702Z,49.40
2018-02-09T10:15:41.243Z,49.40
2018-02-09T10:18:09.551Z,49.30
2018-02-09T10:20:37.127Z,49.20
2018-02-09T10:23:04.676Z,49.20
2018-02-09T10:25:32.228Z,49.20
2018-02-09T10:27:59.759Z,49.10
2018-02-09T10:30:27.322Z,49.10
2018-02-09T10:32:54.890Z,49.10
2018-02-09T10:35:22.428Z,49.10
2018-02-09T10:37:50.782Z,49.10
2018-02-09T10:40:19.330Z,49.10
2018-02-09T10:42:46.885Z,49.10
2018-02-09T10:45:14.450Z,49.10
2018-02-09T10:47:41.991Z,48.90
2018-02-09T10:50:09.524Z,48.90
2018-02-09T10:52:37.058Z,48.90
2018-02-09T10:55:04.599Z,48.90
2018-02-09T10:57:32.179Z,48.80
2018-02-09T10:59:59.703Z,48.60
2018-02-09T11:02:27.231Z,48.50
2018-02-09T11:04:55.530Z,48.40
2018-02-09T11:07:23.061Z,48.40
2018-02-09T11:09:51.390Z,48.60
2018-02-09T11:12:21.546Z,48.80
2018-02-09T11:14:49.083Z,48.80
2018-02-09T11:17:16.618Z,49.60
2018-02-09T11:19:44.159Z,50.10
2018-02-09T11:22:16.052Z,50.30
2018-02-09T11:24:43.591Z,50.80
2018-02-09T11:27:11.727Z,50.90
2018-02-09T11:29:39.258Z,50.90
2018-02-09T11:32:06.797Z,51.20
2018-02-09T11:34:34.413Z,51.40
2018-02-09T11:37:01.952Z,51.50
2018-02-09T11:39:29.491Z,51.40
2018-02-09T11:41:57.036Z,51.60
2018-02-09T11:44:24.570Z,51.70
2018-02-09T11:46:52.910Z,51.60
2018-02-09T11:49:20.457Z,51.60
2018-02-09T11:51:47.989Z,51.60
2018-02-09T11:54:15.527Z,51.50
2018-02-09T11:56:43.830Z,51.10
2018-02-09T11:59:11.401Z,51.10
2018-02-09T12:01:38.961Z,51.10
2018-02-09T12:04:09.190Z,51.10
2018-02-09T12:09:12.390Z,51.10
2018-02-09T12:11:41.322Z,50.70
2018-02-09T12:14:08.866Z,50.70
2018-02-09T12:16:36.407Z,51.40
2018-02-09T12:19:03.957Z,51.10
2018-02-09T12:21:31.486Z,51.20
2018-02-09T12:24:00.451Z,51.00
2018-02-09T12:26:27.995Z,51.00
2018-02-09T12:28:55.529Z,51.10
2018-02-09T12:31:23.066Z,51.00
2018-02-09T12:33:50.610Z,51.00
2018-02-09T12:36:19.366Z,51.00
2018-02-09T12:38:46.913Z,51.00
2018-02-09T12:41:14.449Z,50.90
2018-02-09T12:43:41.983Z,50.90
2018-02-09T12:46:10.278Z,50.90
2018-02-09T12:48:37.885Z,50.90
2018-02-09T12:51:05.970Z,50.80
2018-02-09T12:53:36.348Z,50.90
2018-02-09T12:56:04.643Z,50.90
2018-02-09T12:58:32.183Z,50.90
2018-02-09T13:00:59.770Z,51.00
2018-02-09T13:03:30.181Z,51.00
2018-02-09T13:06:00.271Z,51.00
2018-02-09T13:08:28.833Z,51.00
2018-02-09T13:10:56.909Z,50.90
2018-02-09T13:13:25.211Z,51.10
2018-02-09T13:15:52.762Z,51.00
2018-02-09T13:18:33.030Z,50.90
2018-02-09T13:21:00.570Z,50.90
2018-02-09T13:23:40.751Z,51.00
2018-02-09T13:26:08.288Z,51.00
2018-02-09T13:28:48.435Z,51.00
2018-02-09T13:31:16.749Z,51.60
2018-02-09T13:33:44.278Z,51.00
2018-02-09T13:36:15.551Z,50.90
2018-02-09T13:38:43.090Z,50.90
2018-02-09T13:41:11.415Z,51.00
2018-02-09T13:43:40.904Z,51.00
2018-02-09T13:46:09.088Z,51.00
2018-02-09T13:48:36.748Z,50.90
2018-02-09T13:51:04.287Z,50.90
2018-02-09T13:53:31.838Z,50.90
2018-02-09T13:55:59.447Z,50.80
2018-02-09T13:58:26.983Z,50.80
2018-02-09T14:00:54.515Z,50.80
2018-02-09T14:03:22.807Z,50.80
2018-02-09T14:05:50.362Z,50.80
2018-02-09T14:08:17.893Z,50.80
2018-02-09T14:10:45.447Z,50.80
2018-02-09T14:13:13.010Z,50.80
2018-02-09T14:15:40.604Z,50.80
2018-02-09T14:18:08.140Z,50.70
2018-02-09T14:20:36.475Z,50.90
2018-02-09T14:23:04.034Z,50.80
2018-02-09T14:25:31.562Z,50.90
2018-02-09T14:27:59.100Z,51.00
2018-02-09T14:30:35.397Z,50.90
2018-02-09T14:33:02.930Z,50.90
2018-02-09T14:35:30.521Z,50.80
2018-02-09T14:37:58.054Z,50.80
2018-02-09T14:40:26.359Z,51.10
2018-02-09T14:42:53.898Z,51.60
2018-02-09T14:45:21.443Z,51.10
2018-02-09T14:47:49.773Z,51.40
2018-02-09T14:50:17.316Z,51.40
2018-02-09T14:52:48.018Z,51.40
2018-02-09T14:55:16.315Z,51.40
2018-02-09T14:57:43.857Z,51.30
2018-02-09T15:00:12.187Z,51.30
2018-02-09T15:02:43.909Z,51.30
2018-02-09T15:05:11.468Z,51.30
2018-02-09T15:07:39.008Z,51.30
2018-02-09T15:10:07.313Z,51.20
2018-02-09T15:12:42.633Z,51.30
2018-02-09T15:15:10.934Z,51.20
2018-02-09T15:17:39.399Z,51.20
2018-02-09T15:20:09.643Z,51.20
2018-02-09T15:22:44.123Z,51.20
2018-02-09T15:25:11.670Z,51.10
2018-02-09T15:27:39.205Z,51.20
2018-02-09T15:30:07.761Z,51.20
2018-02-09T15:32:36.235Z,51.20
2018-02-09T15:35:03.795Z,51.20
2018-02-09T15:37:31.354Z,51.20
2018-02-09T15:39:58.891Z,51.30
2018-02-09T15:42:26.431Z,51.00
2018-02-09T15:44:53.971Z,50.80
2018-02-09T15:47:21.499Z,50.70
2018-02-09T15:49:49.064Z,50.80
2018-02-09T15:52:16.595Z,50.70
2018-02-09T15:54:44.138Z,50.70
2018-02-09T15:57:11.691Z,50.70
2018-02-09T15:59:39.228Z,50.70
2018-02-09T16:02:06.800Z,50.70
2018-02-09T16:04:34.446Z,50.70
2018-02-09T16:07:01.993Z,50.80
2018-02-09T16:09:29.536Z,50.80
2018-02-09T16:11:57.134Z,50.80
2018-02-09T16:14:25.626Z,50.80
2018-02-09T16:16:53.191Z,50.80
2018-02-09T16:19:20.738Z,50.70
2018-02-09T16:21:48.279Z,50.70
2018-02-09T16:24:15.825Z,50.70
2018-02-09T16:26:43.394Z,50.80
2018-02-09T16:29:10.991Z,50.70
2018-02-09T16:31:38.544Z,50.50
2018-02-09T16:34:08.123Z,50.50
2018-02-09T16:36:35.654Z,50.50
2018-02-09T16:39:03.988Z,50.50
2018-02-09T16:41:31.519Z,50.50
2018-02-09T16:43:59.066Z,50.80
2018-02-09T16:46:33.676Z,50.90
2018-02-09T16:49:01.970Z,51.10
2018-02-09T16:51:29.572Z,51.10
2018-02-09T16:53:59.217Z,51.10
2018-02-09T16:56:27.565Z,51.00
2018-02-09T16:58:58.150Z,51.00
2018-02-09T17:01:25.692Z,51.10
2018-02-09T17:03:54.027Z,50.90
2018-02-09T17:06:25.456Z,50.90
2018-02-09T17:08:53.011Z,50.70
2018-02-09T17:11:20.553Z,50.60
2018-02-09T17:13:48.102Z,50.60
2018-02-09T17:16:15.671Z,50.60
2018-02-09T17:18:43.218Z,50.60
2018-02-09T17:21:10.767Z,50.50
2018-02-09T17:23:39.107Z,50.40
2018-02-09T17:26:06.651Z,50.40
2018-02-09T17:28:34.238Z,50.40
2018-02-09T17:31:01.789Z,50.30
2018-02-09T17:33:29.345Z,50.30
2018-02-09T17:35:56.883Z,50.30
2018-02-09T17:38:24.423Z,50.30
2018-02-09T17:40:52.752Z,50.30
2018-02-09T17:43:20.293Z,50.20
2018-02-09T17:45:47.840Z,50.20
2018-02-09T17:48:15.376Z,50.20
2018-02-09T17:50:42.934Z,50.20
2018-02-09T17:53:10.507Z,50.30
2018-02-09T17:55:46.249Z,50.20
2018-02-09T17:58:13.839Z,50.20
2018-02-09T18:00:41.399Z,50.20
2018-02-09T18:03:08.935Z,50.20
2018-02-09T18:05:36.475Z,50.40
2018-02-09T18:08:04.025Z,50.40
2018-02-09T18:10:46.511Z,50.40
2018-02-09T18:13:14.253Z,50.40
2018-02-09T18:15:41.919Z,50.30
2018-02-09T18:18:09.455Z,50.40
2018-02-09T18:20:37.043Z,50.30
2018-02-09T18:23:11.369Z,50.40
2018-02-09T18:25:38.954Z,50.20
2018-02-09T18:28:06.512Z,50.20
2018-02-09T18:30:34.059Z,50.20
2018-02-09T18:33:01.602Z,50.20
2018-02-09T18:35:29.931Z,50.10
2018-02-09T18:37:58.249Z,50.10
2018-02-09T18:40:26.912Z,50.10
2018-02-09T18:42:54.480Z,50.00
2018-02-09T18:45:22.090Z,50.10
2018-02-09T18:47:49.644Z,50.10
2018-02-09T18:50:17.200Z,50.10
2018-02-09T18:52:44.776Z,50.10
2018-02-09T18:55:12.319Z,50.10
2018-02-09T18:57:39.895Z,50.00
2018-02-09T19:00:21.098Z,50.00
2018-02-09T19:02:53.302Z,49.80
2018-02-09T19:05:22.070Z,49.80
2018-02-09T19:07:56.274Z,49.80
2018-02-09T19:10:29.299Z,49.80
2018-02-09T19:12:56.865Z,49.80
2018-02-09T19:15:24.450Z,49.70
2018-02-09T19:17:51.991Z,49.70
2018-02-09T19:20:19.572Z,49.80
2018-02-09T19:23:10.803Z,49.60
2018-02-09T19:25:38.459Z,49.70
2018-02-09T19:28:06.028Z,49.70
2018-02-09T19:30:34.413Z,49.70
2018-02-09T19:33:02.742Z,49.60
2018-02-09T19:35:30.301Z,49.60
2018-02-09T19:37:57.877Z,49.70
2018-02-09T19:40:30.930Z,49.70
2018-02-09T19:42:58.502Z,49.70
2018-02-09T19:45:26.073Z,49.70
2018-02-09T19:47:53.640Z,49.70
2018-02-09T19:50:21.205Z,49.70
2018-02-09T19:52:54.481Z,49.50
2018-02-09T19:55:22.044Z,49.50
2018-02-09T20:01:01.626Z,49.50
2018-02-09T20:03:29.189Z,49.50
2018-02-09T20:05:56.730Z,49.40
2018-02-09T20:08:24.283Z,49.40
2018-02-09T20:10:51.834Z,49.40
2018-02-09T20:13:19.409Z,49.20
2018-02-09T20:15:46.954Z,49.20
2018-02-09T20:18:16.511Z,49.20
2018-02-09T20:20:44.063Z,49.20
2018-02-09T20:23:11.644Z,49.30
2018-02-09T20:25:39.214Z,49.40
2018-02-09T20:28:07.533Z,49.20
2018-02-09T20:30:35.930Z,49.10
2018-02-09T20:33:03.499Z,49.10
2018-02-09T20:35:31.038Z,49.00
2018-02-09T20:37:58.616Z,49.10
2018-02-09T20:40:26.154Z,49.10
2018-02-09T20:42:53.734Z,49.00
2018-02-09T20:45:21.280Z,49.10
2018-02-09T20:47:48.831Z,49.00
2018-02-09T20:50:16.394Z,49.00
2018-02-09T20:52:43.952Z,48.90
2018-02-09T20:55:11.508Z,48.80
2018-02-09T20:57:39.058Z,48.90
2018-02-09T21:00:10.849Z,48.80
2018-02-09T21:02:38.414Z,48.80
2018-02-09T21:05:05.958Z,48.70
2018-02-09T21:07:43.957Z,48.80
2018-02-09T21:10:17.757Z,48.80
2018-02-09T21:30:29.252Z,50.20
2018-02-09T21:32:56.830Z,50.10
2018-02-09T21:35:24.402Z,50.20
2018-02-09T21:38:03.245Z,50.20
2018-02-09T21:40:30.829Z,50.30
2018-02-09T21:42:59.148Z,50.70
2018-02-09T21:45:26.840Z,50.20
2018-02-09T21:47:54.385Z,50.20
2018-02-09T21:50:22.201Z,50.20
2018-02-09T21:52:49.802Z,50.20
2018-02-09T21:55:17.387Z,50.20
2018-02-09T21:57:45.043Z,50.10
2018-02-09T22:00:12.601Z,50.10
2018-02-09T22:02:40.219Z,50.00
2018-02-09T22:05:07.800Z,50.00
2018-02-09T22:07:35.406Z,50.00
2018-02-09T22:10:02.950Z,49.90
2018-02-09T22:12:30.505Z,49.90
2018-02-09T22:26:49.919Z,50.10
2018-02-09T22:29:17.502Z,49.90
2018-02-09T22:31:45.071Z,49.80
2018-02-09T22:34:12.642Z,49.70
2018-02-09T22:36:40.225Z,49.70
2018-02-09T22:39:07.823Z,49.60
2018-02-09T22:41:36.163Z,49.60
2018-02-09T22:44:03.711Z,49.60
2018-02-09T22:46:31.618Z,49.40
2018-02-09T22:48:59.951Z,49.40
2018-02-09T22:51:27.555Z,49.40
2018-02-09T22:53:55.882Z,49.30
2018-02-09T22:56:23.461Z,49.30
2018-02-09T22:58:51.032Z,49.30
2018-02-09T23:01:18.584Z,49.40
2018-02-09T23:03:46.187Z,49.30
2018-02-09T23:09:08.522Z,49.10
2018-02-09T23:11:36.079Z,49.10
2018-02-09T23:14:03.633Z,49.00
2018-02-09T23:16:31.426Z,49.00
2018-02-09T23:18:59.756Z,49.00
2018-02-09T23:21:27.345Z,49.00
2018-02-09T23:23:54.915Z,49.00
2018-02-09T23:26:22.491Z,49.00
2018-02-09T23:28:50.100Z,48.90
2018-02-09T23:31:17.656Z,48.80
2018-02-09T23:33:45.251Z,48.80
2018-02-09T23:36:13.593Z,48.70
2018-02-09T23:38:41.910Z,48.70
2018-02-09T23:41:09.481Z,48.70
2018-02-09T23:43:37.802Z,48.60
2018-02-09T23:46:05.393Z,48.60
2018-02-09T23:48:32.937Z,48.60
2018-02-09T23:51:00.508Z,48.70
2018-02-09T23:53:28.078Z,48.50
2018-02-09T23:55:55.623Z,48.50
2018-02-09T23:58:23.216Z,48.50
